sensor_id;sensor_type;location;lat;lon;timestamp;P1;durP1;ratioP1;P2;durP2;ratioP2
32946;SDS011;54465;51.230;22.504;2024-03-07T00:02:21;15.60;;;10.00;;
32946;SDS011;54465;51.230;22.504;2024-03-07T00:07:21;15.18;;;10.40;;
32946;SDS011;54465;51.230;22.504;2024-03-07T00:12:22;14.30;;;10.00;;
32946;SDS011;54465;51.230;22.504;2024-03-07T00:17:23;20.65;;;12.32;;
32946;SDS011;54465;51.230;22.504;2024-03-07T00:22:23;14.10;;;10.27;;
32946;SDS011;54465;51.230;22.504;2024-03-07T00:27:26;15.32;;;9.90;;
32946;SDS011;54465;51.230;22.504;2024-03-07T00:32:27;16.63;;;10.50;;
32946;SDS011;54465;51.230;22.504;2024-03-07T00:37:35;15.45;;;9.68;;
32946;SDS011;54465;51.230;22.504;2024-03-07T00:42:36;18.45;;;11.27;;
32946;SDS011;54465;51.230;22.504;2024-03-07T00:47:37;14.55;;;9.43;;
32946;SDS011;54465;51.230;22.504;2024-03-07T00:52:38;16.73;;;10.10;;
32946;SDS011;54465;51.230;22.504;2024-03-07T00:57:38;13.70;;;10.13;;
32946;SDS011;54465;51.230;22.504;2024-03-07T01:02:42;18.00;;;10.52;;
32946;SDS011;54465;51.230;22.504;2024-03-07T01:07:46;17.33;;;10.43;;
32946;SDS011;54465;51.230;22.504;2024-03-07T01:12:47;19.08;;;10.75;;
32946;SDS011;54465;51.230;22.504;2024-03-07T01:17:50;15.82;;;9.98;;
32946;SDS011;54465;51.230;22.504;2024-03-07T01:22:51;14.77;;;9.70;;
32946;SDS011;54465;51.230;22.504;2024-03-07T01:27:51;16.05;;;10.15;;
32946;SDS011;54465;51.230;22.504;2024-03-07T01:32:52;17.45;;;10.30;;
32946;SDS011;54465;51.230;22.504;2024-03-07T01:37:52;16.63;;;10.52;;
32946;SDS011;54465;51.230;22.504;2024-03-07T01:42:54;16.70;;;10.43;;
32946;SDS011;54465;51.230;22.504;2024-03-07T01:47:55;17.25;;;9.88;;
32946;SDS011;54465;51.230;22.504;2024-03-07T01:52:56;14.02;;;9.25;;
32946;SDS011;54465;51.230;22.504;2024-03-07T01:57:57;13.73;;;9.23;;
32946;SDS011;54465;51.230;22.504;2024-03-07T02:03:02;17.23;;;10.18;;
32946;SDS011;54465;51.230;22.504;2024-03-07T02:08:03;18.48;;;9.90;;
32946;SDS011;54465;51.230;22.504;2024-03-07T02:13:04;14.98;;;9.00;;
32946;SDS011;54465;51.230;22.504;2024-03-07T02:18:04;14.55;;;9.48;;
32946;SDS011;54465;51.230;22.504;2024-03-07T02:23:05;14.90;;;9.85;;
32946;SDS011;54465;51.230;22.504;2024-03-07T02:28:06;17.23;;;9.02;;
32946;SDS011;54465;51.230;22.504;2024-03-07T02:33:07;15.70;;;9.07;;
32946;SDS011;54465;51.230;22.504;2024-03-07T02:38:07;13.57;;;8.73;;
32946;SDS011;54465;51.230;22.504;2024-03-07T02:43:08;14.18;;;8.75;;
32946;SDS011;54465;51.230;22.504;2024-03-07T02:48:09;16.35;;;8.77;;
32946;SDS011;54465;51.230;22.504;2024-03-07T02:53:09;15.18;;;8.55;;
32946;SDS011;54465;51.230;22.504;2024-03-07T02:58:10;13.80;;;9.13;;
32946;SDS011;54465;51.230;22.504;2024-03-07T03:03:10;11.75;;;8.43;;
32946;SDS011;54465;51.230;22.504;2024-03-07T03:08:11;11.63;;;7.75;;
32946;SDS011;54465;51.230;22.504;2024-03-07T03:13:14;12.32;;;7.40;;
32946;SDS011;54465;51.230;22.504;2024-03-07T03:18:15;11.77;;;8.10;;
32946;SDS011;54465;51.230;22.504;2024-03-07T03:23:16;11.27;;;7.50;;
32946;SDS011;54465;51.230;22.504;2024-03-07T03:28:16;14.00;;;6.88;;
32946;SDS011;54465;51.230;22.504;2024-03-07T03:33:19;10.07;;;6.55;;
32946;SDS011;54465;51.230;22.504;2024-03-07T03:38:20;12.38;;;7.10;;
32946;SDS011;54465;51.230;22.504;2024-03-07T03:43:21;8.93;;;6.53;;
32946;SDS011;54465;51.230;22.504;2024-03-07T03:48:22;9.80;;;6.80;;
32946;SDS011;54465;51.230;22.504;2024-03-07T03:53:23;9.25;;;6.10;;
32946;SDS011;54465;51.230;22.504;2024-03-07T03:58:24;10.82;;;7.28;;
32946;SDS011;54465;51.230;22.504;2024-03-07T04:03:25;9.90;;;6.88;;
32946;SDS011;54465;51.230;22.504;2024-03-07T04:08:25;9.82;;;6.57;;
32946;SDS011;54465;51.230;22.504;2024-03-07T04:13:26;9.77;;;6.60;;
32946;SDS011;54465;51.230;22.504;2024-03-07T04:18:27;9.35;;;6.55;;
32946;SDS011;54465;51.230;22.504;2024-03-07T04:23:27;8.55;;;6.18;;
32946;SDS011;54465;51.230;22.504;2024-03-07T04:28:28;8.95;;;6.97;;
32946;SDS011;54465;51.230;22.504;2024-03-07T04:33:28;9.60;;;5.72;;
32946;SDS011;54465;51.230;22.504;2024-03-07T04:38:29;10.98;;;7.05;;
32946;SDS011;54465;51.230;22.504;2024-03-07T04:43:30;11.00;;;5.65;;
32946;SDS011;54465;51.230;22.504;2024-03-07T04:48:31;8.93;;;6.00;;
32946;SDS011;54465;51.230;22.504;2024-03-07T04:53:32;9.45;;;5.93;;
32946;SDS011;54465;51.230;22.504;2024-03-07T04:58:33;8.73;;;5.95;;
32946;SDS011;54465;51.230;22.504;2024-03-07T05:03:33;7.82;;;5.60;;
32946;SDS011;54465;51.230;22.504;2024-03-07T05:08:34;9.25;;;5.18;;
32946;SDS011;54465;51.230;22.504;2024-03-07T05:13:34;6.85;;;5.80;;
32946;SDS011;54465;51.230;22.504;2024-03-07T05:18:35;11.73;;;6.53;;
32946;SDS011;54465;51.230;22.504;2024-03-07T05:23:35;8.18;;;6.05;;
32946;SDS011;54465;51.230;22.504;2024-03-07T05:28:37;8.82;;;5.85;;
32946;SDS011;54465;51.230;22.504;2024-03-07T05:33:40;9.27;;;6.18;;
32946;SDS011;54465;51.230;22.504;2024-03-07T05:38:41;10.63;;;5.45;;
32946;SDS011;54465;51.230;22.504;2024-03-07T05:43:45;11.05;;;5.88;;
32946;SDS011;54465;51.230;22.504;2024-03-07T05:48:45;8.95;;;6.30;;
32946;SDS011;54465;51.230;22.504;2024-03-07T05:53:50;7.72;;;5.68;;
32946;SDS011;54465;51.230;22.504;2024-03-07T05:58:51;9.32;;;6.07;;
32946;SDS011;54465;51.230;22.504;2024-03-07T06:03:51;8.52;;;5.85;;
32946;SDS011;54465;51.230;22.504;2024-03-07T06:08:52;9.95;;;6.28;;
32946;SDS011;54465;51.230;22.504;2024-03-07T06:13:53;7.40;;;5.50;;
32946;SDS011;54465;51.230;22.504;2024-03-07T06:18:53;9.10;;;5.28;;
32946;SDS011;54465;51.230;22.504;2024-03-07T06:23:54;6.90;;;5.18;;
32946;SDS011;54465;51.230;22.504;2024-03-07T06:29:00;7.70;;;4.80;;
32946;SDS011;54465;51.230;22.504;2024-03-07T06:34:00;9.23;;;5.60;;
32946;SDS011;54465;51.230;22.504;2024-03-07T06:39:01;9.00;;;6.13;;
32946;SDS011;54465;51.230;22.504;2024-03-07T06:44:05;10.50;;;5.93;;
32946;SDS011;54465;51.230;22.504;2024-03-07T06:49:06;7.70;;;4.93;;
32946;SDS011;54465;51.230;22.504;2024-03-07T06:54:10;7.47;;;5.57;;
32946;SDS011;54465;51.230;22.504;2024-03-07T06:59:11;9.32;;;5.72;;
32946;SDS011;54465;51.230;22.504;2024-03-07T07:04:13;7.95;;;5.35;;
32946;SDS011;54465;51.230;22.504;2024-03-07T07:09:16;8.23;;;4.93;;
32946;SDS011;54465;51.230;22.504;2024-03-07T07:14:19;11.13;;;5.07;;
32946;SDS011;54465;51.230;22.504;2024-03-07T07:19:20;8.98;;;5.55;;
32946;SDS011;54465;51.230;22.504;2024-03-07T07:24:22;9.88;;;5.47;;
32946;SDS011;54465;51.230;22.504;2024-03-07T07:29:23;8.18;;;5.25;;
32946;SDS011;54465;51.230;22.504;2024-03-07T07:34:24;9.23;;;5.80;;
32946;SDS011;54465;51.230;22.504;2024-03-07T07:39:25;9.80;;;5.60;;
32946;SDS011;54465;51.230;22.504;2024-03-07T07:44:26;9.68;;;5.45;;
32946;SDS011;54465;51.230;22.504;2024-03-07T07:49:27;7.00;;;5.07;;
32946;SDS011;54465;51.230;22.504;2024-03-07T07:54:28;8.32;;;5.75;;
32946;SDS011;54465;51.230;22.504;2024-03-07T07:59:29;6.75;;;5.40;;
32946;SDS011;54465;51.230;22.504;2024-03-07T08:04:32;9.10;;;5.97;;
32946;SDS011;54465;51.230;22.504;2024-03-07T08:09:34;10.63;;;6.50;;
32946;SDS011;54465;51.230;22.504;2024-03-07T08:14:34;12.27;;;6.63;;
32946;SDS011;54465;51.230;22.504;2024-03-07T08:19:35;9.68;;;6.65;;
32946;SDS011;54465;51.230;22.504;2024-03-07T08:24:36;12.32;;;7.63;;
32946;SDS011;54465;51.230;22.504;2024-03-07T08:29:36;11.90;;;6.47;;
32946;SDS011;54465;51.230;22.504;2024-03-07T08:34:37;10.43;;;6.30;;
32946;SDS011;54465;51.230;22.504;2024-03-07T08:39:38;11.10;;;6.78;;
32946;SDS011;54465;51.230;22.504;2024-03-07T08:44:38;11.75;;;6.93;;
32946;SDS011;54465;51.230;22.504;2024-03-07T08:49:40;10.70;;;6.90;;
32946;SDS011;54465;51.230;22.504;2024-03-07T08:54:40;10.25;;;6.40;;
32946;SDS011;54465;51.230;22.504;2024-03-07T08:59:41;10.18;;;7.07;;
32946;SDS011;54465;51.230;22.504;2024-03-07T09:04:42;10.85;;;6.43;;
32946;SDS011;54465;51.230;22.504;2024-03-07T09:09:43;8.98;;;6.00;;
32946;SDS011;54465;51.230;22.504;2024-03-07T09:14:45;10.43;;;6.57;;
32946;SDS011;54465;51.230;22.504;2024-03-07T09:19:46;12.63;;;6.32;;
32946;SDS011;54465;51.230;22.504;2024-03-07T09:24:46;9.73;;;6.70;;
32946;SDS011;54465;51.230;22.504;2024-03-07T09:29:47;12.40;;;7.07;;
32946;SDS011;54465;51.230;22.504;2024-03-07T09:34:47;10.93;;;6.65;;
32946;SDS011;54465;51.230;22.504;2024-03-07T09:39:50;9.35;;;6.40;;
32946;SDS011;54465;51.230;22.504;2024-03-07T09:44:51;8.90;;;5.65;;
32946;SDS011;54465;51.230;22.504;2024-03-07T09:49:52;8.07;;;5.20;;
32946;SDS011;54465;51.230;22.504;2024-03-07T09:54:53;8.95;;;6.13;;
32946;SDS011;54465;51.230;22.504;2024-03-07T09:59:54;12.27;;;6.60;;
32946;SDS011;54465;51.230;22.504;2024-03-07T10:04:54;13.40;;;5.97;;
32946;SDS011;54465;51.230;22.504;2024-03-07T10:09:55;8.25;;;5.28;;
32946;SDS011;54465;51.230;22.504;2024-03-07T10:14:58;10.63;;;5.68;;
32946;SDS011;54465;51.230;22.504;2024-03-07T10:20:04;10.98;;;6.25;;
32946;SDS011;54465;51.230;22.504;2024-03-07T10:25:09;8.45;;;5.47;;
32946;SDS011;54465;51.230;22.504;2024-03-07T10:30:10;10.40;;;5.22;;
32946;SDS011;54465;51.230;22.504;2024-03-07T10:35:14;8.00;;;5.97;;
32946;SDS011;54465;51.230;22.504;2024-03-07T10:40:14;8.80;;;5.75;;
32946;SDS011;54465;51.230;22.504;2024-03-07T10:45:18;7.18;;;4.97;;
32946;SDS011;54465;51.230;22.504;2024-03-07T10:55:36;9.80;;;5.97;;
32946;SDS011;54465;51.230;22.504;2024-03-07T11:00:41;8.00;;;4.85;;
32946;SDS011;54465;51.230;22.504;2024-03-07T11:05:45;9.23;;;5.43;;
32946;SDS011;54465;51.230;22.504;2024-03-07T11:10:46;14.00;;;6.30;;
32946;SDS011;54465;51.230;22.504;2024-03-07T11:15:48;8.15;;;5.43;;
32946;SDS011;54465;51.230;22.504;2024-03-07T11:20:49;8.52;;;5.50;;
32946;SDS011;54465;51.230;22.504;2024-03-07T11:25:50;10.27;;;6.20;;
32946;SDS011;54465;51.230;22.504;2024-03-07T11:30:51;9.82;;;6.35;;
32946;SDS011;54465;51.230;22.504;2024-03-07T11:35:52;10.35;;;6.45;;
32946;SDS011;54465;51.230;22.504;2024-03-07T11:40:53;12.77;;;7.07;;
32946;SDS011;54465;51.230;22.504;2024-03-07T11:45:57;12.85;;;7.57;;
32946;SDS011;54465;51.230;22.504;2024-03-07T11:50:58;10.55;;;7.65;;
32946;SDS011;54465;51.230;22.504;2024-03-07T11:56:00;13.57;;;7.05;;
32946;SDS011;54465;51.230;22.504;2024-03-07T12:01:06;9.32;;;6.35;;
32946;SDS011;54465;51.230;22.504;2024-03-07T12:06:10;10.77;;;6.32;;
32946;SDS011;54465;51.230;22.504;2024-03-07T12:11:13;10.18;;;6.57;;
32946;SDS011;54465;51.230;22.504;2024-03-07T12:16:16;10.60;;;6.13;;
32946;SDS011;54465;51.230;22.504;2024-03-07T12:21:16;13.68;;;6.57;;
32946;SDS011;54465;51.230;22.504;2024-03-07T12:26:19;10.63;;;6.68;;
32946;SDS011;54465;51.230;22.504;2024-03-07T12:31:21;16.58;;;7.28;;
32946;SDS011;54465;51.230;22.504;2024-03-07T12:36:24;13.43;;;6.20;;
32946;SDS011;54465;51.230;22.504;2024-03-07T12:41:34;9.32;;;5.75;;
32946;SDS011;54465;51.230;22.504;2024-03-07T12:46:35;9.35;;;5.80;;
32946;SDS011;54465;51.230;22.504;2024-03-07T12:51:36;9.95;;;6.30;;
32946;SDS011;54465;51.230;22.504;2024-03-07T12:56:37;8.70;;;5.68;;
32946;SDS011;54465;51.230;22.504;2024-03-07T13:01:37;12.63;;;5.63;;
32946;SDS011;54465;51.230;22.504;2024-03-07T13:06:39;10.82;;;5.05;;
32946;SDS011;54465;51.230;22.504;2024-03-07T13:11:43;8.52;;;5.15;;
32946;SDS011;54465;51.230;22.504;2024-03-07T13:16:47;8.98;;;5.70;;
32946;SDS011;54465;51.230;22.504;2024-03-07T13:21:48;8.23;;;5.68;;
32946;SDS011;54465;51.230;22.504;2024-03-07T13:26:48;8.38;;;5.18;;
32946;SDS011;54465;51.230;22.504;2024-03-07T13:31:49;9.13;;;5.75;;
32946;SDS011;54465;51.230;22.504;2024-03-07T13:36:50;6.97;;;4.35;;
32946;SDS011;54465;51.230;22.504;2024-03-07T13:41:51;9.10;;;5.47;;
32946;SDS011;54465;51.230;22.504;2024-03-07T13:46:52;8.02;;;4.63;;
32946;SDS011;54465;51.230;22.504;2024-03-07T13:51:54;12.60;;;5.32;;
32946;SDS011;54465;51.230;22.504;2024-03-07T13:57:08;8.13;;;5.35;;
32946;SDS011;54465;51.230;22.504;2024-03-07T14:23:30;6.82;;;4.97;;
32946;SDS011;54465;51.230;22.504;2024-03-07T14:39:22;6.63;;;4.85;;
32946;SDS011;54465;51.230;22.504;2024-03-07T14:44:23;6.97;;;4.70;;
32946;SDS011;54465;51.230;22.504;2024-03-07T14:49:24;6.85;;;5.00;;
32946;SDS011;54465;51.230;22.504;2024-03-07T14:54:25;10.63;;;5.55;;
32946;SDS011;54465;51.230;22.504;2024-03-07T14:59:26;7.47;;;5.20;;
32946;SDS011;54465;51.230;22.504;2024-03-07T15:04:28;10.07;;;5.30;;
32946;SDS011;54465;51.230;22.504;2024-03-07T15:09:32;8.30;;;5.40;;
32946;SDS011;54465;51.230;22.504;2024-03-07T15:14:34;8.57;;;5.28;;
32946;SDS011;54465;51.230;22.504;2024-03-07T15:19:34;8.20;;;5.55;;
32946;SDS011;54465;51.230;22.504;2024-03-07T15:24:35;10.88;;;5.63;;
32946;SDS011;54465;51.230;22.504;2024-03-07T15:29:36;7.40;;;5.10;;
32946;SDS011;54465;51.230;22.504;2024-03-07T15:34:37;9.57;;;5.65;;
32946;SDS011;54465;51.230;22.504;2024-03-07T15:39:37;9.10;;;5.63;;
32946;SDS011;54465;51.230;22.504;2024-03-07T15:44:38;9.07;;;5.57;;
32946;SDS011;54465;51.230;22.504;2024-03-07T15:49:39;7.63;;;5.32;;
32946;SDS011;54465;51.230;22.504;2024-03-07T15:54:41;6.65;;;5.60;;
32946;SDS011;54465;51.230;22.504;2024-03-07T15:59:42;8.35;;;5.85;;
32946;SDS011;54465;51.230;22.504;2024-03-07T16:04:43;9.68;;;6.03;;
32946;SDS011;54465;51.230;22.504;2024-03-07T16:09:44;9.60;;;5.88;;
32946;SDS011;54465;51.230;22.504;2024-03-07T16:14:45;8.88;;;5.47;;
32946;SDS011;54465;51.230;22.504;2024-03-07T16:19:47;7.05;;;5.05;;
32946;SDS011;54465;51.230;22.504;2024-03-07T16:24:49;12.98;;;7.78;;
32946;SDS011;54465;51.230;22.504;2024-03-07T16:29:50;10.95;;;7.72;;
32946;SDS011;54465;51.230;22.504;2024-03-07T16:34:50;11.48;;;7.63;;
32946;SDS011;54465;51.230;22.504;2024-03-07T16:39:51;11.57;;;7.57;;
32946;SDS011;54465;51.230;22.504;2024-03-07T16:44:51;16.65;;;8.85;;
32946;SDS011;54465;51.230;22.504;2024-03-07T16:49:52;14.77;;;7.97;;
32946;SDS011;54465;51.230;22.504;2024-03-07T16:54:52;14.73;;;8.07;;
32946;SDS011;54465;51.230;22.504;2024-03-07T16:59:53;12.43;;;8.18;;
32946;SDS011;54465;51.230;22.504;2024-03-07T17:04:53;15.93;;;9.13;;
32946;SDS011;54465;51.230;22.504;2024-03-07T17:09:57;17.25;;;11.25;;
32946;SDS011;54465;51.230;22.504;2024-03-07T17:14:58;19.77;;;12.32;;
32946;SDS011;54465;51.230;22.504;2024-03-07T17:19:58;17.83;;;10.75;;
32946;SDS011;54465;51.230;22.504;2024-03-07T17:24:59;20.88;;;12.48;;
32946;SDS011;54465;51.230;22.504;2024-03-07T17:29:59;26.92;;;14.02;;
32946;SDS011;54465;51.230;22.504;2024-03-07T17:35:00;22.90;;;14.10;;
32946;SDS011;54465;51.230;22.504;2024-03-07T17:40:01;21.55;;;13.65;;
32946;SDS011;54465;51.230;22.504;2024-03-07T17:45:03;39.72;;;19.40;;
32946;SDS011;54465;51.230;22.504;2024-03-07T17:50:11;32.40;;;15.73;;
32946;SDS011;54465;51.230;22.504;2024-03-07T17:55:15;29.92;;;15.43;;
32946;SDS011;54465;51.230;22.504;2024-03-07T18:00:17;26.05;;;14.95;;
32946;SDS011;54465;51.230;22.504;2024-03-07T18:05:27;29.13;;;14.95;;
32946;SDS011;54465;51.230;22.504;2024-03-07T18:10:35;29.33;;;15.80;;
32946;SDS011;54465;51.230;22.504;2024-03-07T18:15:36;31.52;;;18.55;;
32946;SDS011;54465;51.230;22.504;2024-03-07T18:20:39;49.55;;;25.52;;
32946;SDS011;54465;51.230;22.504;2024-03-07T18:25:40;44.72;;;26.45;;
32946;SDS011;54465;51.230;22.504;2024-03-07T18:30:41;48.53;;;26.58;;
32946;SDS011;54465;51.230;22.504;2024-03-07T18:35:41;45.20;;;25.15;;
32946;SDS011;54465;51.230;22.504;2024-03-07T18:40:45;48.60;;;25.58;;
32946;SDS011;54465;51.230;22.504;2024-03-07T18:45:46;89.68;;;36.80;;
32946;SDS011;54465;51.230;22.504;2024-03-07T18:50:47;87.97;;;34.30;;
32946;SDS011;54465;51.230;22.504;2024-03-07T18:55:48;50.63;;;26.02;;
32946;SDS011;54465;51.230;22.504;2024-03-07T19:00:49;81.32;;;32.70;;
32946;SDS011;54465;51.230;22.504;2024-03-07T19:05:49;70.10;;;31.33;;
32946;SDS011;54465;51.230;22.504;2024-03-07T19:10:53;61.65;;;32.15;;
32946;SDS011;54465;51.230;22.504;2024-03-07T19:15:57;72.25;;;37.65;;
32946;SDS011;54465;51.230;22.504;2024-03-07T19:20:58;109.47;;;52.85;;
32946;SDS011;54465;51.230;22.504;2024-03-07T19:25:59;105.70;;;52.85;;
32946;SDS011;54465;51.230;22.504;2024-03-07T19:31:04;74.97;;;35.42;;
32946;SDS011;54465;51.230;22.504;2024-03-07T19:36:04;73.35;;;38.03;;
32946;SDS011;54465;51.230;22.504;2024-03-07T19:41:13;72.40;;;38.30;;
32946;SDS011;54465;51.230;22.504;2024-03-07T19:46:14;71.90;;;37.58;;
32946;SDS011;54465;51.230;22.504;2024-03-07T19:51:16;63.13;;;35.60;;
32946;SDS011;54465;51.230;22.504;2024-03-07T19:56:19;61.75;;;34.20;;
32946;SDS011;54465;51.230;22.504;2024-03-07T20:01:23;59.80;;;31.90;;
32946;SDS011;54465;51.230;22.504;2024-03-07T20:06:24;54.90;;;29.20;;
32946;SDS011;54465;51.230;22.504;2024-03-07T20:11:24;50.35;;;27.23;;
32946;SDS011;54465;51.230;22.504;2024-03-07T20:16:25;54.95;;;27.40;;
32946;SDS011;54465;51.230;22.504;2024-03-07T20:21:25;50.58;;;25.23;;
32946;SDS011;54465;51.230;22.504;2024-03-07T20:26:26;51.63;;;28.42;;
32946;SDS011;54465;51.230;22.504;2024-03-07T20:31:26;49.33;;;25.58;;
32946;SDS011;54465;51.230;22.504;2024-03-07T20:36:27;47.53;;;24.58;;
32946;SDS011;54465;51.230;22.504;2024-03-07T20:41:27;57.10;;;27.45;;
32946;SDS011;54465;51.230;22.504;2024-03-07T20:46:30;45.45;;;24.55;;
32946;SDS011;54465;51.230;22.504;2024-03-07T20:51:31;51.63;;;26.10;;
32946;SDS011;54465;51.230;22.504;2024-03-07T20:56:36;55.22;;;29.85;;
32946;SDS011;54465;51.230;22.504;2024-03-07T21:01:41;57.30;;;30.23;;
32946;SDS011;54465;51.230;22.504;2024-03-07T21:06:47;51.53;;;28.23;;
32946;SDS011;54465;51.230;22.504;2024-03-07T21:11:50;51.03;;;27.13;;
32946;SDS011;54465;51.230;22.504;2024-03-07T21:16:53;53.83;;;28.52;;
32946;SDS011;54465;51.230;22.504;2024-03-07T21:21:53;54.42;;;26.70;;
32946;SDS011;54465;51.230;22.504;2024-03-07T21:26:53;59.58;;;28.50;;
32946;SDS011;54465;51.230;22.504;2024-03-07T21:31:54;55.35;;;28.73;;
32946;SDS011;54465;51.230;22.504;2024-03-07T21:36:54;53.20;;;28.00;;
32946;SDS011;54465;51.230;22.504;2024-03-07T21:41:55;53.85;;;27.08;;
32946;SDS011;54465;51.230;22.504;2024-03-07T21:46:56;51.95;;;24.25;;
32946;SDS011;54465;51.230;22.504;2024-03-07T21:51:56;48.83;;;22.95;;
32946;SDS011;54465;51.230;22.504;2024-03-07T21:56:57;38.13;;;21.23;;
32946;SDS011;54465;51.230;22.504;2024-03-07T22:01:58;35.65;;;20.63;;
32946;SDS011;54465;51.230;22.504;2024-03-07T22:06:58;39.67;;;21.40;;
32946;SDS011;54465;51.230;22.504;2024-03-07T22:11:59;43.88;;;24.05;;
32946;SDS011;54465;51.230;22.504;2024-03-07T22:16:59;39.08;;;22.02;;
32946;SDS011;54465;51.230;22.504;2024-03-07T22:22:04;39.40;;;22.95;;
32946;SDS011;54465;51.230;22.504;2024-03-07T22:27:06;42.85;;;23.05;;
32946;SDS011;54465;51.230;22.504;2024-03-07T22:32:06;48.00;;;24.40;;
32946;SDS011;54465;51.230;22.504;2024-03-07T22:37:07;53.55;;;26.30;;
32946;SDS011;54465;51.230;22.504;2024-03-07T22:42:09;44.40;;;24.13;;
32946;SDS011;54465;51.230;22.504;2024-03-07T22:47:12;39.25;;;23.10;;
32946;SDS011;54465;51.230;22.504;2024-03-07T22:52:12;38.85;;;23.17;;
32946;SDS011;54465;51.230;22.504;2024-03-07T22:57:13;47.47;;;26.10;;
32946;SDS011;54465;51.230;22.504;2024-03-07T23:02:13;44.60;;;24.77;;
32946;SDS011;54465;51.230;22.504;2024-03-07T23:07:14;42.17;;;21.67;;
32946;SDS011;54465;51.230;22.504;2024-03-07T23:12:15;45.65;;;23.80;;
32946;SDS011;54465;51.230;22.504;2024-03-07T23:17:19;54.45;;;26.70;;
32946;SDS011;54465;51.230;22.504;2024-03-07T23:22:20;51.80;;;25.27;;
32946;SDS011;54465;51.230;22.504;2024-03-07T23:27:20;45.72;;;24.02;;
32946;SDS011;54465;51.230;22.504;2024-03-07T23:32:21;38.65;;;22.85;;
32946;SDS011;54465;51.230;22.504;2024-03-07T23:37:22;26.90;;;16.13;;
32946;SDS011;54465;51.230;22.504;2024-03-07T23:42:22;27.73;;;15.27;;
32946;SDS011;54465;51.230;22.504;2024-03-07T23:47:23;30.48;;;16.20;;
32946;SDS011;54465;51.230;22.504;2024-03-07T23:52:24;27.23;;;14.65;;
32946;SDS011;54465;51.230;22.504;2024-03-07T23:57:24;32.70;;;16.23;;
